Time;durP1;ratioP1;P1;durP2;ratioP2;P2;SDS_P1;SDS_P2;PMS_P1;PMS_P2;Temp;Humidity;BMP_temperature;BMP_pressure;BME280_temperature;BME280_humidity;BME280_pressure;Samples;Min_cycle;Max_cycle;Signal;HPM_P1;HPM_P2
2023/06/03 00:00:05;;;;;;;;;19.00;13.33;;;;;17.53;48.05;101385.16;5016272;28;45346;-42
2023/06/03 00:02:30;;;;;;;;;22.00;14.00;;;;;17.62;48.10;101396.72;5018426;28;45436;-42
2023/06/03 00:05:00;;;;;;;;;15.00;12.00;;;;;17.58;48.28;101392.69;5018996;28;45354;-43
2023/06/03 00:07:26;;;;;;;;;14.67;13.00;;;;;17.46;48.49;101376.94;5018938;28;45322;-43
2023/06/03 00:09:51;;;;;;;;;13.33;11.33;;;;;17.50;49.03;101390.88;5018691;28;46116;-44
2023/06/03 00:12:17;;;;;;;;;18.00;13.67;;;;;17.47;48.75;101391.22;5018811;28;45386;-43
2023/06/03 00:14:42;;;;;;;;;13.00;11.67;;;;;17.45;49.30;101394.09;5018559;28;45422;-42
2023/06/03 00:17:07;;;;;;;;;14.33;10.67;;;;;17.40;49.41;101380.34;5019056;28;45468;-44
2023/06/03 00:19:33;;;;;;;;;25.67;15.67;;;;;17.38;49.53;101389.59;5018570;28;45964;-42
2023/06/03 00:22:00;;;;;;;;;25.67;16.00;;;;;17.37;49.60;101396.00;5018588;28;45328;-43
2023/06/03 00:24:25;;;;;;;;;17.00;13.33;;;;;17.30;49.74;101395.00;5018402;28;45201;-42
2023/06/03 00:26:52;;;;;;;;;21.00;13.33;;;;;17.29;50.04;101396.03;5018361;28;45284;-43
2023/06/03 00:29:20;;;;;;;;;11.00;10.33;;;;;17.18;49.72;101381.09;5018362;28;45353;-42
2023/06/03 00:31:46;;;;;;;;;16.33;12.67;;;;;17.23;50.32;101388.66;5018091;28;45393;-43
2023/06/03 00:34:12;;;;;;;;;16.67;12.67;;;;;17.12;50.35;101377.28;5018494;28;45381;-44
2023/06/03 00:36:37;;;;;;;;;17.00;11.67;;;;;17.14;50.44;101386.00;5018673;28;45406;-42
2023/06/03 00:39:03;;;;;;;;;17.67;14.00;;;;;17.13;50.61;101384.31;5018473;28;47282;-43
2023/06/03 00:41:28;;;;;;;;;18.00;13.00;;;;;17.12;50.66;101384.50;5018204;28;45707;-42
2023/06/03 00:43:53;;;;;;;;;17.00;11.00;;;;;17.08;51.04;101375.94;5018387;28;45367;-45
2023/06/03 00:46:20;;;;;;;;;16.00;12.67;;;;;17.07;50.75;101379.66;5018527;28;45245;-44
2023/06/03 00:48:46;;;;;;;;;14.67;12.00;;;;;17.05;51.26;101375.44;5017672;28;45335;-43
2023/06/03 00:51:14;;;;;;;;;15.00;13.00;;;;;16.96;51.22;101363.88;5017896;28;45402;-43
2023/06/03 00:53:39;;;;;;;;;15.33;13.00;;;;;16.99;51.48;101373.47;5017939;28;45472;-43
2023/06/03 00:56:05;;;;;;;;;14.67;12.67;;;;;16.96;51.63;101378.16;5018344;28;45327;-44
2023/06/03 00:58:32;;;;;;;;;15.67;14.00;;;;;16.94;51.85;101374.81;5017926;28;47370;-43
2023/06/03 01:00:57;;;;;;;;;18.00;15.00;;;;;16.92;51.44;101366.06;5017557;28;45355;-44
2023/06/03 01:03:23;;;;;;;;;19.67;14.33;;;;;16.89;51.63;101355.66;5017905;28;45396;-43
2023/06/03 01:05:57;;;;;;;;;13.67;12.67;;;;;16.87;51.52;101359.56;5018164;28;45466;-45
2023/06/03 01:08:52;;;;;;;;;17.33;15.33;;;;;16.85;51.60;101366.94;5017785;28;47090;-42
2023/06/03 01:11:26;;;;;;;;;13.33;13.33;;;;;16.78;52.14;101347.16;4974855;28;45347;-43
2023/06/03 01:13:58;;;;;;;;;19.00;13.67;;;;;16.79;52.48;101355.03;4976112;28;45443;-43
2023/06/03 01:16:25;;;;;;;;;18.33;13.00;;;;;16.78;52.84;101347.16;4976152;28;45269;-43
2023/06/03 01:18:51;;;;;;;;;19.33;14.00;;;;;16.76;52.96;101360.75;4975528;28;46084;-45
2023/06/03 01:21:17;;;;;;;;;18.00;14.00;;;;;16.74;52.99;101356.56;4975747;28;45466;-42
2023/06/03 01:23:44;;;;;;;;;19.33;15.00;;;;;16.64;52.73;101348.66;4975855;28;45667;-43
2023/06/03 01:26:11;;;;;;;;;21.33;17.00;;;;;16.63;53.10;101345.13;4976133;28;45582;-42
2023/06/03 01:28:37;;;;;;;;;16.67;12.67;;;;;16.68;53.14;101360.75;4975705;28;47071;-43
2023/06/03 01:31:05;;;;;;;;;20.67;15.00;;;;;16.59;53.33;101338.44;4975593;28;45385;-43
2023/06/03 01:33:32;;;;;;;;;16.67;11.33;;;;;16.65;53.43;101359.25;4975697;28;45497;-47
2023/06/03 01:36:00;;;;;;;;;13.67;12.00;;;;;16.62;53.38;101346.16;4975988;28;45375;-42
2023/06/03 01:38:26;;;;;;;;;19.67;13.00;;;;;16.61;53.58;101349.84;4975581;28;47144;-46
2023/06/03 01:40:52;;;;;;;;;17.00;14.67;;;;;16.61;53.54;101351.72;4975398;28;45394;-42
2023/06/03 01:43:18;;;;;;;;;15.67;13.33;;;;;16.59;53.66;101346.50;4975847;28;45350;-44
2023/06/03 01:45:44;;;;;;;;;14.33;12.33;;;;;16.58;53.61;101350.19;4975717;28;45318;-41
2023/06/03 01:48:09;;;;;;;;;17.67;14.00;;;;;16.56;53.67;101346.84;4994545;28;46868;-43
2023/06/03 01:50:42;;;;;;;;;17.67;13.00;;;;;16.52;53.52;101344.66;5017397;28;45345;-42
2023/06/03 01:53:08;;;;;;;;;17.00;13.67;;;;;16.53;53.86;101351.72;5017333;28;45382;-43
2023/06/03 01:55:34;;;;;;;;;17.33;14.67;;;;;16.50;54.07;101360.94;5017438;28;45216;-41
2023/06/03 01:58:00;;;;;;;;;13.00;13.00;;;;;16.46;53.98;101355.06;5016757;28;46013;-42
2023/06/03 02:00:25;;;;;;;;;23.67;17.00;;;;;16.49;54.27;101353.06;5016878;28;45314;-45
2023/06/03 02:02:50;;;;;;;;;27.67;16.67;;;;;16.49;54.33;101350.38;5016128;28;45417;-43
2023/06/03 02:05:16;;;;;;;;;14.67;14.67;;;;;16.48;54.14;101351.41;5017039;28;45519;-43
2023/06/03 02:07:41;;;;;;;;;16.33;14.00;;;;;16.46;54.43;101349.69;5016701;28;45564;-43
2023/06/03 02:10:07;;;;;;;;;17.00;16.33;;;;;16.44;54.57;101351.72;5016682;28;45372;-43
2023/06/03 02:12:32;;;;;;;;;15.33;15.33;;;;;16.32;54.72;101341.50;5017058;28;45424;-42
2023/06/03 02:14:58;;;;;;;;;12.33;12.33;;;;;16.34;54.38;101344.84;5017037;28;45324;-42
2023/06/03 02:17:26;;;;;;;;;16.67;15.00;;;;;16.38;54.70;101351.56;5016832;28;46367;-47
2023/06/03 02:19:55;;;;;;;;;15.33;12.00;;;;;16.38;54.83;101348.88;5015613;28;45374;-42
2023/06/03 02:22:21;;;;;;;;;18.67;12.00;;;;;16.34;54.97;101340.31;5015377;28;45291;-42
2023/06/03 02:24:47;;;;;;;;;14.67;14.67;;;;;16.34;54.87;101348.38;4998161;28;45390;-42
2023/06/03 02:27:15;;;;;;;;;21.00;16.33;;;;;16.34;55.15;101347.53;5016367;28;46395;-43
2023/06/03 02:29:45;;;;;;;;;20.00;16.00;;;;;16.31;55.19;101346.06;5016023;28;45458;-42
2023/06/03 02:32:10;;;;;;;;;22.67;17.67;;;;;16.29;55.19;101352.59;5016480;28;45490;-42
2023/06/03 02:34:35;;;;;;;;;20.33;17.00;;;;;16.26;55.38;101340.31;5016502;28;45811;-43
2023/06/03 02:37:01;;;;;;;;;20.33;17.33;;;;;16.24;55.42;101344.22;5016036;28;47311;-42
2023/06/03 02:39:27;;;;;;;;;22.67;18.33;;;;;16.20;55.55;101336.47;5016096;28;45323;-42
2023/06/03 02:41:52;;;;;;;;;25.33;20.00;;;;;16.15;55.61;101324.59;5016102;28;45484;-42
2023/06/03 02:44:17;;;;;;;;;19.67;15.67;;;;;16.19;55.95;101345.56;5016288;28;45457;-42
2023/06/03 02:46:43;;;;;;;;;18.33;17.67;;;;;16.14;55.66;101342.53;5016162;28;45398;-43
2023/06/03 02:49:10;;;;;;;;;17.33;16.33;;;;;16.16;55.85;101358.47;5015945;28;45437;-42
2023/06/03 02:51:36;;;;;;;;;19.67;16.33;;;;;16.07;56.06;101335.31;5016131;28;45362;-43
2023/06/03 02:54:02;;;;;;;;;18.00;15.00;;;;;16.13;56.34;101348.88;5016389;28;45408;-42
2023/06/03 02:56:27;;;;;;;;;20.67;15.00;;;;;16.11;56.06;101350.91;5015690;28;45916;-43
2023/06/03 02:58:54;;;;;;;;;22.00;16.33;;;;;16.10;56.10;101343.03;5016003;28;45329;-42
2023/06/03 03:01:20;;;;;;;;;25.00;19.00;;;;;16.08;56.38;101345.03;5015878;28;45498;-43
2023/06/03 03:03:46;;;;;;;;;25.00;16.00;;;;;16.03;56.18;101336.66;5015901;28;45470;-44
2023/06/03 03:06:14;;;;;;;;;18.33;17.00;;;;;16.01;56.30;101339.50;5015569;28;46119;-43
2023/06/03 03:08:40;;;;;;;;;19.33;17.00;;;;;16.02;56.37;101351.94;5015565;28;45311;-42
2023/06/03 03:11:06;;;;;;;;;20.67;19.00;;;;;15.99;56.25;101343.38;5016100;28;45686;-42
2023/06/03 03:13:31;;;;;;;;;21.67;19.67;;;;;15.98;56.59;101345.22;5015997;28;45569;-44
2023/06/03 03:15:57;;;;;;;;;28.00;19.00;;;;;15.84;56.32;101327.09;5015657;28;46170;-42
2023/06/03 03:18:22;;;;;;;;;19.33;17.67;;;;;15.90;56.48;101337.16;5015429;28;45470;-41
2023/06/03 03:20:48;;;;;;;;;24.00;17.00;;;;;15.78;56.64;101328.59;5015660;28;45322;-42
2023/06/03 03:23:13;;;;;;;;;24.33;18.00;;;;;15.86;56.94;101342.03;5015952;28;45343;-42
2023/06/03 03:25:40;;;;;;;;;15.00;15.00;;;;;15.86;56.64;101346.56;5015653;28;45390;-43
2023/06/03 03:28:05;;;;;;;;;21.00;18.33;;;;;15.81;56.76;101343.53;5015588;28;45433;-43
2023/06/03 03:30:31;;;;;;;;;17.00;17.00;;;;;15.80;56.98;101344.53;4997601;28;45311;-42
2023/06/03 03:32:58;;;;;;;;;23.00;17.67;;;;;15.77;57.01;101339.50;5015689;28;45516;-45
2023/06/03 03:35:25;;;;;;;;;19.00;16.00;;;;;15.75;57.10;101345.03;5017464;28;46219;-43
2023/06/03 03:38:00;;;;;;;;;20.00;18.00;;;;;15.71;56.68;101347.19;5018991;28;45284;-44
2023/06/03 03:40:26;;;;;;;;;19.00;17.00;;;;;15.70;57.08;101344.69;5019124;28;45358;-43
2023/06/03 03:42:53;;;;;;;;;18.00;16.00;;;;;15.68;57.22;101344.84;5019173;28;45434;-42
2023/06/03 03:45:21;;;;;;;;;22.00;20.00;;;;;15.67;57.26;101342.31;5019088;28;46927;-42
2023/06/03 03:47:50;;;;;;;;;22.67;17.33;;;;;15.59;56.91;101340.47;5018819;28;45387;-43
2023/06/03 03:50:43;;;;;;;;;17.00;16.67;;;;;15.57;56.88;101334.41;5018737;28;45414;-42
2023/06/03 03:53:16;;;;;;;;;25.00;19.00;;;;;15.60;57.15;101350.19;5019240;28;45231;-42
2023/06/03 03:55:52;;;;;;;;;19.33;16.00;;;;;15.59;57.15;101351.19;5018899;28;45417;-42
2023/06/03 03:58:26;;;;;;;;;23.67;19.00;;;;;15.58;57.22;101360.22;5018802;28;45452;-42
2023/06/03 04:00:59;;;;;;;;;16.33;16.00;;;;;15.58;57.31;101362.06;5018588;28;45369;-41
2023/06/03 04:03:25;;;;;;;;;23.67;16.33;;;;;15.57;57.52;101371.13;5018766;28;45486;-42
2023/06/03 04:05:52;;;;;;;;;20.67;15.67;;;;;15.55;57.79;101355.19;5018567;28;46154;-42
2023/06/03 04:08:38;;;;;;;;;23.00;17.00;;;;;15.57;57.48;101363.06;5018705;28;45401;-43
2023/06/03 04:11:04;;;;;;;;;26.67;19.33;;;;;15.43;57.64;101337.75;5018499;28;45286;-44
2023/06/03 04:13:33;;;;;;;;;27.67;18.67;;;;;15.55;57.60;101355.19;5018801;28;45426;-42
2023/06/03 04:16:00;;;;;;;;;23.33;17.33;;;;;15.55;57.63;101355.19;5018434;28;47315;-42
2023/06/03 04:18:26;;;;;;;;;24.67;19.00;;;;;15.53;57.63;101357.19;5018317;28;45612;-41
2023/06/03 04:20:56;;;;;;;;;22.67;18.67;;;;;15.52;57.67;101350.16;5018159;28;45441;-43
2023/06/03 04:23:22;;;;;;;;;21.33;19.00;;;;;15.52;57.88;101355.53;5018480;28;45445;-43
2023/06/03 04:25:48;;;;;;;;;21.67;19.67;;;;;15.52;57.90;101352.84;5018133;28;46212;-41
2023/06/03 04:28:14;;;;;;;;;19.67;18.33;;;;;15.52;57.75;101365.41;5018298;28;45314;-43
2023/06/03 04:30:39;;;;;;;;;26.00;17.00;;;;;15.46;58.00;101351.66;5018263;28;45909;-44
2023/06/03 04:33:05;;;;;;;;;22.33;18.33;;;;;15.53;57.91;101362.56;5018943;28;45434;-45
2023/06/03 04:35:31;;;;;;;;;20.00;19.33;;;;;15.54;57.93;101363.38;5018035;28;47111;-42
2023/06/03 04:37:59;;;;;;;;;21.33;19.67;;;;;15.51;57.71;101359.22;5018007;28;45505;-43
2023/06/03 04:40:26;;;;;;;;;24.67;17.00;;;;;15.53;57.82;101367.91;5018438;28;45318;-41
2023/06/03 04:42:52;;;;;;;;;22.33;17.33;;;;;15.52;57.68;101365.41;5018432;28;45318;-45
2023/06/03 04:45:21;;;;;;;;;24.67;18.33;;;;;15.53;57.70;101375.13;5017430;28;46080;-42
2023/06/03 04:47:47;;;;;;;;;23.67;19.67;;;;;15.52;57.62;101374.28;5017568;28;45489;-46
2023/06/03 04:50:19;;;;;;;;;18.67;16.00;;;;;15.53;57.62;101383.16;5016817;28;45426;-44
2023/06/03 04:52:45;;;;;;;;;24.33;17.00;;;;;15.54;57.45;101388.34;5018219;28;45417;-44
2023/06/03 04:55:12;;;;;;;;;20.33;19.33;;;;;15.54;57.89;101388.34;5017904;28;46848;-44
2023/06/03 04:57:37;;;;;;;;;24.33;19.00;;;;;15.54;57.96;101384.84;5017871;28;45500;-45
2023/06/03 05:00:06;;;;;;;;;24.33;18.33;;;;;15.55;57.73;101387.38;5018153;28;45386;-46
2023/06/03 05:02:32;;;;;;;;;30.67;21.00;;;;;15.47;57.73;101377.47;5017984;28;45506;-44
2023/06/03 05:04:57;;;;;;;;;24.00;19.67;;;;;15.54;57.52;101391.03;5017219;28;47171;-43
2023/06/03 05:07:24;;;;;;;;;29.33;18.67;;;;;15.56;57.71;101389.06;5018082;28;45331;-46
2023/06/03 05:09:50;;;;;;;;;27.67;20.67;;;;;15.57;57.78;101395.25;5017911;28;45528;-43
2023/06/03 05:12:18;;;;;;;;;27.67;20.00;;;;;15.57;57.90;101396.09;5018118;28;45284;-43
2023/06/03 05:14:44;;;;;;;;;26.67;18.67;;;;;15.56;57.47;101385.53;5017626;28;46206;-45
2023/06/03 05:17:10;;;;;;;;;24.33;20.00;;;;;15.60;57.80;101392.25;5017498;28;45478;-43
2023/06/03 05:19:35;;;;;;;;;18.67;17.00;;;;;15.64;57.84;101401.66;5017803;28;45275;-44
2023/06/03 05:22:03;;;;;;;;;24.00;20.00;;;;;15.63;57.39;101387.41;5017728;28;45464;-46
2023/06/03 05:24:28;;;;;;;;;24.33;17.00;;;;;15.67;57.62;101399.50;5017507;28;46189;-44
2023/06/03 05:26:54;;;;;;;;;20.00;17.67;;;;;15.67;57.56;101388.78;5017209;28;45417;-45
2023/06/03 05:29:19;;;;;;;;;21.33;17.33;;;;;15.62;57.56;101380.34;5017139;28;45457;-45
2023/06/03 05:31:44;;;;;;;;;16.67;16.67;;;;;15.72;57.53;101385.59;5017656;28;45398;-45
2023/06/03 05:34:10;;;;;;;;;21.33;16.00;;;;;15.75;57.31;101393.31;5017263;28;46150;-43
2023/06/03 05:36:35;;;;;;;;;24.33;21.33;;;;;15.77;57.58;101391.31;5017225;28;45610;-44
2023/06/03 05:39:01;;;;;;;;;21.33;18.67;;;;;15.82;56.97;101388.13;5017200;28;45721;-43
2023/06/03 05:41:26;;;;;;;;;25.67;18.67;;;;;15.84;57.23;101388.78;5017255;28;45496;-42
2023/06/03 05:43:51;;;;;;;;;18.33;18.00;;;;;15.86;57.23;101387.63;5017294;28;46079;-43
2023/06/03 05:46:17;;;;;;;;;18.67;16.00;;;;;15.88;57.25;101379.41;5017121;28;45524;-42
2023/06/03 05:48:43;;;;;;;;;21.67;17.67;;;;;15.94;56.90;101387.66;5017434;28;45487;-42
2023/06/03 05:51:08;;;;;;;;;16.00;15.33;;;;;15.92;57.04;101375.38;5017364;28;45422;-45
2023/06/03 05:53:34;;;;;;;;;19.33;19.33;;;;;16.01;56.87;101387.81;5016855;28;46204;-42
2023/06/03 05:55:59;;;;;;;;;20.67;16.67;;;;;16.05;56.74;101394.50;5017013;28;45428;-43
2023/06/03 05:58:24;;;;;;;;;19.00;15.67;;;;;16.08;56.80;101393.34;5016987;28;45905;-44
2023/06/03 06:00:50;;;;;;;;;20.67;18.33;;;;;16.12;56.65;101392.00;5017114;28;45366;-42
2023/06/03 06:03:16;;;;;;;;;24.33;15.67;;;;;16.12;56.70;101395.53;4999127;28;46978;-42
2023/06/03 06:05:42;;;;;;;;;19.67;18.00;;;;;16.19;56.71;101407.28;5016437;28;45353;-43
2023/06/03 06:08:07;;;;;;;;;23.33;17.00;;;;;16.23;56.42;101399.75;5017059;28;45426;-42
2023/06/03 06:10:32;;;;;;;;;20.67;16.00;;;;;16.31;56.62;101404.28;5016965;28;45342;-42
2023/06/03 06:12:57;;;;;;;;;26.00;18.67;;;;;16.35;56.74;101403.78;5016754;28;46075;-44
2023/06/03 06:15:23;;;;;;;;;18.67;13.00;;;;;16.30;56.61;101383.78;5016782;28;45244;-42
2023/06/03 06:17:48;;;;;;;;;24.33;22.00;;;;;16.36;56.65;101383.97;5016705;28;45291;-41
2023/06/03 06:20:14;;;;;;;;;20.67;18.00;;;;;16.49;56.03;101396.88;5016679;28;45533;-44
2023/06/03 06:22:41;;;;;;;;;21.00;16.00;;;;;16.59;55.84;101410.94;5016398;28;46944;-42
2023/06/03 06:25:08;;;;;;;;;15.67;15.00;;;;;16.66;55.62;101406.59;5016754;28;45354;-43
2023/06/03 06:27:34;;;;;;;;;22.67;14.67;;;;;16.73;55.81;101408.59;5016490;28;45478;-44
2023/06/03 06:29:59;;;;;;;;;18.00;17.00;;;;;16.83;55.58;101402.06;5016343;28;45505;-48
2023/06/03 06:32:26;;;;;;;;;19.33;15.00;;;;;16.99;55.16;101401.19;5016483;28;45995;-44
2023/06/03 06:34:52;;;;;;;;;20.67;17.33;;;;;17.84;53.97;101398.59;5016245;28;45421;-43
2023/06/03 06:37:18;;;;;;;;;18.67;16.67;;;;;18.91;51.77;101393.16;5016431;28;45362;-44
2023/06/03 06:39:49;;;;;;;;;21.33;15.33;;;;;19.92;49.76;101392.34;5016413;28;45576;-43
2023/06/03 06:42:35;;;;;;;;;16.67;14.00;;;;;20.95;47.58;101395.50;5016066;28;46276;-44
2023/06/03 06:45:13;;;;;;;;;23.33;16.33;;;;;22.29;44.75;101386.75;5016335;28;45338;-43
2023/06/03 06:47:38;;;;;;;;;18.00;17.00;;;;;23.45;42.25;101386.13;5016561;28;45280;-43
2023/06/03 06:50:07;;;;;;;;;18.67;17.67;;;;;24.31;40.29;101372.00;5016268;28;45233;-44
2023/06/03 06:52:34;;;;;;;;;16.00;13.67;;;;;25.21;38.78;101377.00;5015917;28;46744;-45
2023/06/03 06:55:00;;;;;;;;;20.33;17.33;;;;;25.96;38.00;101391.09;5015965;28;45403;-42
2023/06/03 06:57:28;;;;;;;;;16.67;14.67;;;;;26.56;36.92;101384.66;5015958;28;45427;-44
2023/06/03 06:59:53;;;;;;;;;20.00;16.25;;;;;27.07;35.23;101383.88;5016423;28;45756;-41
2023/06/03 07:02:19;;;;;;;;;16.75;14.50;;;;;27.65;33.48;101389.44;5015760;28;46231;-42
2023/06/03 07:04:45;;;;;;;;;14.75;12.50;;;;;28.10;33.82;101376.59;5015690;28;45422;-42
2023/06/03 07:07:12;;;;;;;;;19.75;14.00;;;;;28.59;32.90;101384.25;5015909;28;45430;-42
2023/06/03 07:09:37;;;;;;;;;15.00;12.25;;;;;29.04;31.72;101388.75;5014806;28;45660;-41
2023/06/03 07:12:03;;;;;;;;;17.50;14.75;;;;;29.40;30.61;101384.50;5015583;28;46311;-40
2023/06/03 07:14:30;;;;;;;;;15.75;13.50;;;;;29.83;31.08;101386.38;5015684;28;45473;-41
2023/06/03 07:16:55;;;;;;;;;12.40;12.00;;;;;30.20;29.80;101385.63;5015982;28;45394;-41
2023/06/03 07:19:21;;;;;;;;;14.75;12.00;;;;;30.53;28.95;101381.75;5015965;28;45294;-41
2023/06/03 07:21:46;;;;;;;;;12.75;11.75;;;;;30.90;28.77;101386.38;5015434;28;46471;-41
2023/06/03 07:24:13;;;;;;;;;12.75;9.75;;;;;31.20;28.40;101371.13;5015336;28;45231;-43
2023/06/03 07:26:39;;;;;;;;;13.00;9.60;;;;;31.62;28.09;101375.66;5016073;28;45348;-42
2023/06/03 07:29:05;;;;;;;;;13.75;9.75;;;;;32.00;27.60;101385.38;5015670;28;45382;-42
2023/06/03 07:31:31;;;;;;;;;15.25;13.00;;;;;32.35;26.96;101379.00;5015783;28;46184;-42
2023/06/03 07:33:57;;;;;;;;;13.20;9.80;;;;;32.67;26.85;101375.97;5015653;28;45366;-42
2023/06/03 07:36:26;;;;;;;;;13.50;11.00;;;;;32.90;26.50;101365.41;5015352;28;45520;-43
2023/06/03 07:38:51;;;;;;;;;12.80;9.80;;;;;33.31;26.26;101382.63;5015695;28;45409;-41
2023/06/03 07:41:44;;;;;;;;;13.75;11.00;;;;;33.54;25.40;101381.13;5015124;28;45339;-45
2023/06/03 07:44:11;;;;;;;;;11.20;11.20;;;;;33.73;25.93;101379.38;5015027;28;45351;-42
2023/06/03 07:46:42;;;;;;;;;12.40;10.60;;;;;33.94;24.82;101376.44;5015452;28;45425;-43
2023/06/03 07:49:13;;;;;;;;;11.80;10.00;;;;;34.21;25.25;101381.47;5015921;28;45354;-43
2023/06/03 07:51:45;;;;;;;;;15.00;12.00;;;;;34.47;24.05;101384.81;5015220;28;46387;-40
2023/06/03 07:54:11;;;;;;;;;13.00;11.00;;;;;34.70;23.94;101384.06;5015428;28;45375;-43
2023/06/03 07:56:36;;;;;;;;;27.00;21.80;;;;;34.78;24.00;101377.06;5015592;28;45353;-43
2023/06/03 07:59:08;;;;;;;;;21.50;20.00;;;;;34.83;24.38;101374.25;5015321;28;45367;-42
2023/06/03 08:01:35;;;;;;;;;16.80;12.00;;;;;35.09;23.29;101379.47;5015096;28;45411;-46
2023/06/03 08:04:02;;;;;;;;;11.80;11.80;;;;;35.42;23.02;101383.19;5015226;28;45366;-43
2023/06/03 08:06:28;;;;;;;;;13.40;11.60;;;;;35.58;22.76;101372.75;5015038;28;45345;-42
2023/06/03 08:08:58;;;;;;;;;9.60;9.20;;;;;35.68;22.86;101362.34;5015345;28;45453;-41
2023/06/03 08:11:23;;;;;;;;;10.80;9.60;;;;;35.96;22.16;101371.59;5014890;28;46395;-41
2023/06/03 08:13:49;;;;;;;;;12.25;9.25;;;;;36.20;22.25;101381.75;5015174;28;45492;-44
2023/06/03 08:16:18;;;;;;;;;9.50;9.50;;;;;36.45;22.32;101373.00;5015413;28;45586;-42
2023/06/03 08:18:52;;;;;;;;;12.20;11.00;;;;;36.69;22.08;101371.97;5015747;28;45690;-44
2023/06/03 08:21:18;;;;;;;;;12.80;11.20;;;;;37.02;21.00;101369.13;5016828;28;46093;-47
2023/06/03 08:23:44;;;;;;;;;11.00;9.20;;;;;37.36;20.83;101375.00;5018419;28;45495;-42
2023/06/03 08:26:11;;;;;;;;;9.25;9.25;;;;;37.68;21.25;101357.34;5018750;28;45371;-46
2023/06/03 08:28:39;;;;;;;;;10.20;8.60;;;;;38.02;21.16;101366.28;5018864;28;45840;-45
2023/06/03 08:31:05;;;;;;;;;9.20;6.60;;;;;38.18;21.13;101359.19;5018036;28;46266;-45
2023/06/03 08:33:30;;;;;;;;;9.00;9.00;;;;;38.31;20.25;101360.22;5018689;28;45508;-45
2023/06/03 08:35:56;;;;;;;;;12.25;9.00;;;;;38.36;20.64;101360.94;5018456;28;45414;-44
2023/06/03 08:38:22;;;;;;;;;9.75;7.75;;;;;38.47;19.46;101358.69;5000819;28;45399;-44
2023/06/03 08:40:49;;;;;;;;;10.75;8.00;;;;;38.54;19.96;101352.66;5018283;28;45377;-45
2023/06/03 08:43:15;;;;;;;;;9.80;9.80;;;;;38.67;19.85;101368.41;5018401;28;45317;-47
2023/06/03 08:46:05;;;;;;;;;12.60;8.60;;;;;38.64;19.85;101369.91;5018568;28;45306;-44
2023/06/03 08:48:41;;;;;;;;;15.20;8.80;;;;;38.67;19.94;101358.09;5001003;28;45344;-45
2023/06/03 08:51:09;;;;;;;;;17.20;10.80;;;;;38.70;20.06;101353.88;5018296;28;46092;-46
2023/06/03 08:53:45;;;;;;;;;8.60;8.40;;;;;38.81;19.93;101358.03;5018250;28;45377;-47
2023/06/03 08:56:12;;;;;;;;;9.60;9.40;;;;;38.90;19.61;101355.28;5000590;28;45338;-47
2023/06/03 08:58:45;;;;;;;;;9.60;8.00;;;;;38.93;19.44;101341.50;5018575;28;45354;-47
2023/06/03 09:01:11;;;;;;;;;11.00;8.60;;;;;39.06;19.72;101342.53;5017226;28;46258;-42
2023/06/03 09:03:38;;;;;;;;;9.00;7.00;;;;;39.07;19.51;101349.75;5016869;28;45915;-45
2023/06/03 09:06:05;;;;;;;;;7.80;7.80;;;;;39.07;19.72;101355.31;5017883;28;45398;-46
2023/06/03 09:08:31;;;;;;;;;10.00;9.80;;;;;39.19;19.39;101351.91;5018127;28;45438;-49
2023/06/03 09:10:59;;;;;;;;;7.20;6.60;;;;;39.32;19.33;101352.91;5017811;28;46354;-45
2023/06/03 09:13:28;;;;;;;;;8.20;7.00;;;;;39.46;19.19;101367.47;5017821;28;45247;-47
2023/06/03 09:15:54;;;;;;;;;10.00;8.60;;;;;39.53;18.97;101362.25;5018085;28;45187;-46
2023/06/03 09:18:19;;;;;;;;;11.00;9.75;;;;;39.44;18.84;101361.41;5018197;28;45326;-48
2023/06/03 09:20:45;;;;;;;;;9.75;7.75;;;;;39.42;18.80;101356.19;5017650;28;46064;-47
2023/06/03 09:23:12;;;;;;;;;9.00;7.50;;;;;39.29;19.14;101359.94;5017635;28;45347;-47
2023/06/03 09:25:37;;;;;;;;;11.60;8.00;;;;;39.18;19.04;101364.16;5017930;28;45461;-48
2023/06/03 09:28:03;;;;;;;;;9.00;9.00;;;;;39.08;19.22;101356.94;5017989;28;45390;-45
2023/06/03 09:30:33;;;;;;;;;10.00;8.00;;;;;39.07;19.28;101352.53;5017410;28;47155;-46
2023/06/03 09:32:58;;;;;;;;;8.40;8.00;;;;;38.95;19.18;101359.88;5016030;28;45440;-47
2023/06/03 09:35:24;;;;;;;;;11.50;9.75;;;;;38.84;19.81;101362.94;5017606;28;45404;-44
2023/06/03 09:38:00;;;;;;;;;12.00;9.50;;;;;38.69;19.81;101364.19;5017701;28;45355;-44
2023/06/03 09:40:28;;;;;;;;;10.00;7.80;;;;;38.51;19.75;101368.00;5017177;28;46763;-45
2023/06/03 09:42:54;;;;;;;;;6.80;6.80;;;;;38.25;19.50;101362.31;5017365;28;45372;-45
2023/06/03 09:45:28;;;;;;;;;8.00;8.00;;;;;38.05;19.93;101360.06;5017135;28;45384;-47
2023/06/03 09:47:54;;;;;;;;;7.40;6.80;;;;;37.81;20.20;101358.44;5017010;28;45524;-49
2023/06/03 09:50:21;;;;;;;;;11.00;8.50;;;;;37.68;20.42;101362.09;5017496;28;45875;-47
2023/06/03 09:52:46;;;;;;;;;7.80;7.80;;;;;37.41;19.86;101363.81;5017143;28;45289;-48
2023/06/03 09:55:13;;;;;;;;;10.00;9.00;;;;;37.19;19.98;101360.97;5017541;28;45370;-47
2023/06/03 09:57:39;;;;;;;;;10.40;8.20;;;;;37.11;20.51;101361.69;5017261;28;45569;-47
2023/06/03 10:00:12;;;;;;;;;9.75;7.50;;;;;36.99;20.29;101365.00;5016517;28;45513;-48
2023/06/03 10:02:39;;;;;;;;;7.00;6.80;;;;;36.87;21.04;101353.56;5017053;28;45303;-46
2023/06/03 10:05:25;;;;;;;;;9.40;6.80;;;;;36.63;21.18;101351.84;5016606;28;45541;-47
2023/06/03 10:07:50;;;;;;;;;8.60;6.80;;;;;36.44;20.85;101360.25;5017272;28;45343;-49
2023/06/03 10:10:15;;;;;;;;;9.00;9.00;;;;;36.18;21.46;101359.03;5017164;28;45486;-45
2023/06/03 10:12:41;;;;;;;;;8.25;6.25;;;;;35.73;21.76;101358.66;5017219;28;45342;-47
2023/06/03 10:15:07;;;;;;;;;7.75;5.75;;;;;35.36;21.38;101352.00;5017121;28;45517;-47
2023/06/03 10:17:32;;;;;;;;;9.40;8.00;;;;;35.13;21.77;101364.75;5017200;28;45330;-46
2023/06/03 10:19:58;;;;;;;;;9.75;8.00;;;;;34.95;22.17;101360.81;5016392;28;45818;-46
2023/06/03 10:22:26;;;;;;;;;9.25;8.00;;;;;34.74;22.25;101357.47;5015726;28;48743;-44
2023/06/03 10:24:54;;;;;;;;;9.00;8.40;;;;;34.47;22.33;101344.25;5016766;28;45775;-44
2023/06/03 10:27:20;;;;;;;;;7.40;7.40;;;;;34.32;22.26;101352.66;5017057;28;45326;-45
2023/06/03 10:29:52;;;;;;;;;11.00;9.40;;;;;34.07;22.95;101355.66;5016022;28;46183;-46
2023/06/03 10:32:17;;;;;;;;;9.80;7.20;;;;;33.80;22.68;101354.22;5016487;28;45328;-46
2023/06/03 10:34:44;;;;;;;;;11.75;9.75;;;;;33.58;23.16;101351.03;5016729;28;45382;-45
2023/06/03 10:37:14;;;;;;;;;9.40;8.80;;;;;33.23;23.79;101337.16;5016999;28;45383;-44
2023/06/03 10:39:43;;;;;;;;;11.60;9.00;;;;;32.99;24.06;101347.22;5016512;28;46190;-45
2023/06/03 10:42:11;;;;;;;;;11.40;10.60;;;;;32.85;23.89;101349.72;5016728;28;45797;-43
2023/06/03 10:44:36;;;;;;;;;9.60;7.80;;;;;32.57;24.54;101333.84;5015662;28;45308;-46
2023/06/03 10:47:06;;;;;;;;;13.50;10.00;;;;;32.55;24.54;101345.13;5016712;28;45418;-46
2023/06/03 10:50:10;;;;;;;;;10.00;7.80;;;;;32.41;24.76;101349.59;5016302;28;45389;-48
2023/06/03 10:52:59;;;;;;;;;10.80;7.20;;;;;32.12;25.03;101352.06;5014275;28;45336;-45
2023/06/03 10:56:01;;;;;;;;;11.80;11.20;;;;;31.84;25.52;101356.19;5016649;28;45431;-48
2023/06/03 10:58:28;;;;;;;;;9.60;8.20;;;;;31.39;25.33;101355.81;4975161;28;45407;-50
2023/06/03 11:01:02;;;;;;;;;11.80;11.80;;;;;30.89;25.96;101350.91;4974569;28;45589;-47
2023/06/03 11:03:37;;;;;;;;;12.00;10.00;;;;;30.33;26.56;101351.41;4974226;28;45362;-46
2023/06/03 11:06:25;;;;;;;;;11.40;9.60;;;;;29.73;27.50;101349.78;4974693;28;45333;-48
2023/06/03 11:09:12;;;;;;;;;16.20;10.40;;;;;29.34;28.04;101348.00;4974607;28;45632;-47
2023/06/03 11:11:40;;;;;;;;;10.80;10.20;;;;;29.11;28.52;101347.44;4974626;28;46044;-45
2023/06/03 11:14:10;;;;;;;;;9.80;9.80;;;;;28.83;28.54;101341.88;4974461;28;45287;-45